A- A+ FrançaisEnglishEspañol中国

Services sur Internet Soldes sur Internet Des idées de cadeaux Météo Météo aéro

La météo à : Autours de vous Grenoble-Le-Versoud Biarritz-Bayonne-Anglet Pau-PyrénéesTarbes-Lourdes-Pyrénées

carte TEMSI

Pour illustration, la carte TEMSI n'est pas mise à jour

La météo aéronautique pour les pilotes, la préparation du vol avec les METAR (METeorological Aerodrome Report, message d'observation des conditions météorologiques pour l'aviation) et Les TAF (Terminal Aerodrome Forecast : message de prévision à court terme des conditions météorologiques pour l'aviation). Et les autres ressources comme les VAC (Visual Approch Chart) et les NOTAM (Notice To Airman) pour préprer les vols.

Aéroport Bouake (Côte d'Ivoire) / OACI DIBK/ IATA BYK

L'altitude de l'aéroport Bouake est de 375 m = 1230 ft. Il est situé à proximité de (Côte d'Ivoire). La météo générale à 5 jours est disponible pour Sakassou situé à 39.8 km.

METAR de l'aéroport Bouake - DIBK

DIBK 101500Z 02006KT 8000 FEW015 32/18 Q1011 NOSIG

Décodage du METAR de l'aéroport Bouake (CI)

METAR émis par DIBK le mardi 10 décembre 2019 à 15:00 heure TU, il y a 34 minutes.

La visibilité est de 8 km = 5 sm.

La température est de 32°C = 90 °F et le point rosée est de 18°C = 64 °F . Ce qui correspond à 43% d'humidité relative.

Le QNH est de 1011 hPa = 29.85 inHg

Vent de 6 kt = 11 km/h, orienté à 20°.

Nuages : Quelques nuages à 1500 ft = 460 mètres.

Aucun changement significatif dans les deux heures à venir

TAF de l'aéroport Bouake - DIBK

DIBK 101100Z 1012/1112 26010KT 8000 SCT013

DIBK 101100Z 1012/1112 26010KT 8000 nuages épars à 013

Aéroport à proximité de Bouake

Météo générale à 5 jours à Sakassou (39.8 km)Aéroport Yamoussoukro (98 km)Aéroport Bocanda (99 km)Aéroport Dimbokro Ville (130 km)Aéroport Seguela (182 km)Aéroport Daloa (187 km)Aéroport Korhogo (191 km)

Vue aérienne de l'aéroport Bouake

NOTAM de l'aéroport Bouake

Les NOTAM sont fournis sans aucune garantie de leur actualité. Le pilote est le seul responsable de la vérification de sa validité avant de l'utiliser opérationnellement pour préparer un vol ou l'utiliser lors de sa navigation.

Pas de NOTAM

Sources des données